首页
METAR-TAF:

METAR-TAF

机场 :

Cayo Largo del Sur, 古巴

纬度: 21-37N, 经度: 081-33W, 海拔: 2米

当前天气观测

该预报发布于1小时和13分钟前的15:50 UTC
风速8节,风向东南,在南转南东之间变化
温度 31°C
湿度 75%
气压 1016 hPa
能見度: 9000
少量云层高于2000英尺

METAR: MUCL 211550Z 14008KT 100V160 9000 FEW020 31/26 Q1016

时间: 13:03 (17:03 UTC)

预报

该预报发布于6小时和3分钟前的11:00 UTC
预报有效从21日的 12点(UTC)到 21日的 24点(UTC)
风速10节,风向东转东南
能見度: 9000
散云层高于2000英尺
短暂存在
从 21日的 14点(UTC)到 21日的 19点(UTC)
能見度: 5000
散云层高于1800英尺, 积雨云.
多云层高于2000英尺
雷暴, 雨,

TAF: MUCL 211100Z 2112/2124 11010KT 9000 SCT020 TEMPO 2114/2119 5000 TSRA SCT018CB BKN020

超过4000个机场的气象观测和天气预报(METAR&TAF报告)。

可查询的气象台以黄色和红色小点在地图上表示。

将鼠标移到小点上方,可查看气象台名称。

然后点击查看天气观测和预报。

如需切换地图:点击带黑十字的绿色按钮放大地图;点击带横线的绿色按钮缩小地图;或者点击绿色箭头查看邻近地区的地图。


METAR-TAF: